KAQO

Details ICAO KAQO
Name LLANO MUNI
Region United States
Timezone America/Chicago (UTC-6.0)
Plans Departing 2
Arriving 4
Stats Elevation 1,102 ft / 336 m (AMSL)
Location 30.784617° -98.659987°
Runways 2
Magnetic Variation 4.363° E
Sunrise 2017-12-14 13:25:46 UTC / 2017-12-14 07:25:46 Local
Sunset 2017-12-14 23:35:55 UTC / 2017-12-14 17:35:55 Local
Advertisement - Login to hide

Runways

ID Width Length Bearing (true) Bearing (mag) Surface Threshold Offset Overrun Length
13 150 ft / 46 m 3,244 ft / 989 m 137.67° 133.31° Grass 0 ft / 0 m 0 ft / 0 m
17 75 ft / 23 m 4,215 ft / 1,285 m 179.22° 174.86° Asphalt 0 ft / 0 m 0 ft / 0 m
31 150 ft / 46 m 3,244 ft / 989 m 317.68° 313.32° Grass 0 ft / 0 m 0 ft / 0 m
35 75 ft / 23 m 4,215 ft / 1,285 m 359.22° 354.86° Asphalt 0 ft / 0 m 0 ft / 0 m

Map

Weather


0- 5 10 15 20 25 30 35+ Temperature / ° C

Clouds and Precipitation
Forecast for 2017-12-14 18:00 UTC. Updated 4 minutes ago

Ground ~20,000 ft ~40,000 ft Winds

METAR

KAQO 141715Z AUTO 03008KT 10SM FEW095 16/M01 A3006 RMK AO2

TAF

Not found

Frequencies

Recorded 119.42 MHz AWOS 3
Unicom 122.80 MHz CTAF/UNICOM
Warning: Do not use this data for real-world aviation or navigation. No guarantee of current accuracy is given.